sensor_id;sensor_type;location;lat;lon;timestamp;pressure;altitude;pressure_sealevel;temperature;humidity
51313;BME280;37397;53.226;10.400;2023-02-19T00:01:22;101046.88;;;8.03;77.04
51313;BME280;37397;53.226;10.400;2023-02-19T00:03:54;101044.94;;;8.00;77.12
51313;BME280;37397;53.226;10.400;2023-02-19T00:06:22;101052.19;;;8.01;77.23
51313;BME280;37397;53.226;10.400;2023-02-19T00:08:49;101045.03;;;7.97;77.21
51313;BME280;37397;53.226;10.400;2023-02-19T00:11:22;101044.13;;;8.00;77.30
51313;BME280;37397;53.226;10.400;2023-02-19T00:13:50;101040.50;;;7.99;77.20
51313;BME280;37397;53.226;10.400;2023-02-19T00:16:21;101037.34;;;7.97;77.29
51313;BME280;37397;53.226;10.400;2023-02-19T00:18:47;101030.84;;;7.97;77.24
51313;BME280;37397;53.226;10.400;2023-02-19T00:21:15;101029.59;;;7.98;77.23
51313;BME280;37397;53.226;10.400;2023-02-19T00:23:42;101034.50;;;7.97;77.29
51313;BME280;37397;53.226;10.400;2023-02-19T00:26:10;101037.78;;;7.96;77.19
51313;BME280;37397;53.226;10.400;2023-02-19T00:28:47;101033.81;;;7.93;77.23
51313;BME280;37397;53.226;10.400;2023-02-19T00:31:26;101020.88;;;7.92;77.18
51313;BME280;37397;53.226;10.400;2023-02-19T00:33:56;101016.75;;;7.93;77.06
51313;BME280;37397;53.226;10.400;2023-02-19T00:36:23;101012.34;;;7.92;77.20
51313;BME280;37397;53.226;10.400;2023-02-19T00:38:50;101010.75;;;7.91;77.37
51313;BME280;37397;53.226;10.400;2023-02-19T00:41:18;101001.22;;;7.85;77.09
51313;BME280;37397;53.226;10.400;2023-02-19T00:43:57;101007.13;;;7.91;77.26
51313;BME280;37397;53.226;10.400;2023-02-19T00:46:28;101008.34;;;7.90;77.12
51313;BME280;37397;53.226;10.400;2023-02-19T00:48:55;101009.59;;;7.89;77.27
51313;BME280;37397;53.226;10.400;2023-02-19T00:51:24;101009.72;;;7.85;77.24
51313;BME280;37397;53.226;10.400;2023-02-19T00:53:51;101001.47;;;7.78;77.27
51313;BME280;37397;53.226;10.400;2023-02-19T00:56:18;101018.59;;;7.87;77.06
51313;BME280;37397;53.226;10.400;2023-02-19T00:58:46;101027.09;;;7.87;77.24
51313;BME280;37397;53.226;10.400;2023-02-19T01:01:13;101027.69;;;7.82;77.04
51313;BME280;37397;53.226;10.400;2023-02-19T01:03:40;101029.28;;;7.83;76.93
51313;BME280;37397;53.226;10.400;2023-02-19T01:06:09;101024.84;;;7.82;76.96
51313;BME280;37397;53.226;10.400;2023-02-19T01:08:36;101014.84;;;7.77;76.72
51313;BME280;37397;53.226;10.400;2023-02-19T01:11:04;101016.44;;;7.78;76.80
51313;BME280;37397;53.226;10.400;2023-02-19T01:13:32;101005.88;;;7.79;76.78
51313;BME280;37397;53.226;10.400;2023-02-19T01:16:04;101015.66;;;7.78;76.83
51313;BME280;37397;53.226;10.400;2023-02-19T01:18:31;101028.28;;;7.77;76.88
51313;BME280;37397;53.226;10.400;2023-02-19T01:20:57;101021.13;;;7.72;76.95
51313;BME280;37397;53.226;10.400;2023-02-19T01:23:24;101033.63;;;7.75;76.86
51313;BME280;37397;53.226;10.400;2023-02-19T01:25:50;101023.16;;;7.72;76.93
51313;BME280;37397;53.226;10.400;2023-02-19T01:28:17;101029.19;;;7.74;76.81
51313;BME280;37397;53.226;10.400;2023-02-19T01:30:43;101018.84;;;7.67;76.94
51313;BME280;37397;53.226;10.400;2023-02-19T01:33:10;101040.22;;;7.72;76.82
51313;BME280;37397;53.226;10.400;2023-02-19T01:35:37;101036.22;;;7.69;76.88
51313;BME280;37397;53.226;10.400;2023-02-19T01:38:04;101027.13;;;7.61;76.97
51313;BME280;37397;53.226;10.400;2023-02-19T01:40:34;101025.91;;;7.62;76.72
51313;BME280;37397;53.226;10.400;2023-02-19T01:43:01;101023.53;;;7.61;76.94
51313;BME280;37397;53.226;10.400;2023-02-19T01:45:33;101042.03;;;7.65;76.88
51313;BME280;37397;53.226;10.400;2023-02-19T01:48:06;101047.72;;;7.65;76.91
51313;BME280;37397;53.226;10.400;2023-02-19T01:50:40;101035.00;;;7.57;76.99
51313;BME280;37397;53.226;10.400;2023-02-19T01:53:11;101042.94;;;7.62;76.64
51313;BME280;37397;53.226;10.400;2023-02-19T01:55:39;101033.63;;;7.62;76.84
51313;BME280;37397;53.226;10.400;2023-02-19T01:58:07;101035.00;;;7.57;76.69
51313;BME280;37397;53.226;10.400;2023-02-19T02:00:36;101039.06;;;7.56;76.71
51313;BME280;37397;53.226;10.400;2023-02-19T02:03:03;101031.13;;;7.51;76.78
51313;BME280;37397;53.226;10.400;2023-02-19T02:05:38;101037.50;;;7.55;76.53
51313;BME280;37397;53.226;10.400;2023-02-19T02:08:06;101034.31;;;7.53;76.67
51313;BME280;37397;53.226;10.400;2023-02-19T02:10:52;101022.84;;;7.44;76.85
51313;BME280;37397;53.226;10.400;2023-02-19T02:13:19;101034.31;;;7.53;76.79
51313;BME280;37397;53.226;10.400;2023-02-19T02:18:39;101030.81;;;7.49;76.70
51313;BME280;37397;53.226;10.400;2023-02-19T02:21:26;101017.19;;;7.44;76.62
51313;BME280;37397;53.226;10.400;2023-02-19T02:32:10;101018.41;;;7.43;76.80
51313;BME280;37397;53.226;10.400;2023-02-19T02:34:53;101020.56;;;7.39;76.63
51313;BME280;37397;53.226;10.400;2023-02-19T02:37:23;101009.66;;;7.37;76.81
51313;BME280;37397;53.226;10.400;2023-02-19T02:39:51;101004.91;;;7.34;76.78
51313;BME280;37397;53.226;10.400;2023-02-19T02:42:20;101010.59;;;7.34;76.67
51313;BME280;37397;53.226;10.400;2023-02-19T02:48:31;101025.56;;;7.35;76.58
51313;BME280;37397;53.226;10.400;2023-02-19T02:51:16;101035.00;;;7.32;76.56
51313;BME280;37397;53.226;10.400;2023-02-19T02:54:02;101033.41;;;7.30;76.66
51313;BME280;37397;53.226;10.400;2023-02-19T02:56:50;101039.53;;;7.29;76.60
51313;BME280;37397;53.226;10.400;2023-02-19T02:59:21;101044.75;;;7.30;76.75
51313;BME280;37397;53.226;10.400;2023-02-19T03:01:53;101043.72;;;7.24;76.66
51313;BME280;37397;53.226;10.400;2023-02-19T03:08:12;101042.47;;;7.25;76.48
51313;BME280;37397;53.226;10.400;2023-02-19T03:10:55;101043.72;;;7.24;76.89
51313;BME280;37397;53.226;10.400;2023-02-19T03:13:28;101042.47;;;7.25;76.64
51313;BME280;37397;53.226;10.400;2023-02-19T03:16:24;101045.00;;;7.23;76.90
51313;BME280;37397;53.226;10.400;2023-02-19T03:19:13;101046.56;;;7.24;76.58
51313;BME280;37397;53.226;10.400;2023-02-19T03:21:53;101042.16;;;7.23;76.74
51313;BME280;37397;53.226;10.400;2023-02-19T03:24:27;101037.03;;;7.18;76.81
51313;BME280;37397;53.226;10.400;2023-02-19T03:27:14;101045.88;;;7.20;76.94
51313;BME280;37397;53.226;10.400;2023-02-19T03:29:47;101042.72;;;7.18;76.91
51313;BME280;37397;53.226;10.400;2023-02-19T03:32:29;101047.03;;;7.10;76.77
51313;BME280;37397;53.226;10.400;2023-02-19T03:35:21;101065.44;;;7.18;76.65
51313;BME280;37397;53.226;10.400;2023-02-19T03:38:01;101069.50;;;7.17;76.72
51313;BME280;37397;53.226;10.400;2023-02-19T03:40:35;101060.97;;;7.17;76.92
51313;BME280;37397;53.226;10.400;2023-02-19T03:43:16;101072.66;;;7.19;76.70
51313;BME280;37397;53.226;10.400;2023-02-19T03:46:10;101069.63;;;7.14;76.34
51313;BME280;37397;53.226;10.400;2023-02-19T03:48:49;101073.25;;;7.14;76.63
51313;BME280;37397;53.226;10.400;2023-02-19T03:51:30;101076.53;;;7.12;76.61
51313;BME280;37397;53.226;10.400;2023-02-19T03:54:11;101081.75;;;7.14;76.38
51313;BME280;37397;53.226;10.400;2023-02-19T03:56:50;101077.09;;;7.07;76.37
51313;BME280;37397;53.226;10.400;2023-02-19T03:59:41;101087.53;;;7.10;76.00
51313;BME280;37397;53.226;10.400;2023-02-19T04:02:12;101094.00;;;7.11;76.22
51313;BME280;37397;53.226;10.400;2023-02-19T04:04:48;101089.59;;;7.10;76.36
51313;BME280;37397;53.226;10.400;2023-02-19T04:07:16;101093.22;;;7.10;76.51
51313;BME280;37397;53.226;10.400;2023-02-19T04:09:46;101086.75;;;7.10;76.58
51313;BME280;37397;53.226;10.400;2023-02-19T04:12:18;101097.28;;;7.09;76.34
51313;BME280;37397;53.226;10.400;2023-02-19T04:14:58;101101.47;;;7.05;76.29
51313;BME280;37397;53.226;10.400;2023-02-19T04:17:34;101103.41;;;7.08;76.30
51313;BME280;37397;53.226;10.400;2023-02-19T04:20:05;101111.94;;;7.08;76.25
51313;BME280;37397;53.226;10.400;2023-02-19T04:22:34;101112.38;;;7.06;76.48
51313;BME280;37397;53.226;10.400;2023-02-19T04:25:02;101108.75;;;7.06;76.41
51313;BME280;37397;53.226;10.400;2023-02-19T04:27:29;101101.25;;;6.99;76.64
51313;BME280;37397;53.226;10.400;2023-02-19T04:29:55;101118.16;;;7.03;76.52
51313;BME280;37397;53.226;10.400;2023-02-19T04:32:22;101117.72;;;7.04;76.35
51313;BME280;37397;53.226;10.400;2023-02-19T04:34:49;101127.00;;;7.05;76.29
51313;BME280;37397;53.226;10.400;2023-02-19T04:37:18;101107.81;;;6.96;76.46
51313;BME280;37397;53.226;10.400;2023-02-19T04:39:45;101119.41;;;7.02;76.26
51313;BME280;37397;53.226;10.400;2023-02-19T04:42:11;101107.47;;;6.94;76.41
51313;BME280;37397;53.226;10.400;2023-02-19T04:44:37;101130.41;;;7.00;76.46
51313;BME280;37397;53.226;10.400;2023-02-19T04:47:04;101132.47;;;6.99;76.43
51313;BME280;37397;53.226;10.400;2023-02-19T04:49:31;101133.09;;;6.90;76.50
51313;BME280;37397;53.226;10.400;2023-02-19T04:51:57;101139.47;;;6.94;76.28
51313;BME280;37397;53.226;10.400;2023-02-19T04:54:24;101148.78;;;6.95;76.25
51313;BME280;37397;53.226;10.400;2023-02-19T04:56:50;101157.72;;;6.93;76.24
51313;BME280;37397;53.226;10.400;2023-02-19T04:59:17;101148.53;;;6.89;76.35
51313;BME280;37397;53.226;10.400;2023-02-19T05:01:43;101153.78;;;6.91;76.38
51313;BME280;37397;53.226;10.400;2023-02-19T05:04:10;101156.22;;;6.89;76.18
51313;BME280;37397;53.226;10.400;2023-02-19T05:06:36;101169.97;;;6.90;76.32
51313;BME280;37397;53.226;10.400;2023-02-19T05:09:03;101171.25;;;6.89;76.43
51313;BME280;37397;53.226;10.400;2023-02-19T05:11:29;101170.19;;;6.83;76.34
51313;BME280;37397;53.226;10.400;2023-02-19T05:13:56;101170.19;;;6.83;76.28
51313;BME280;37397;53.226;10.400;2023-02-19T05:16:22;101176.53;;;6.87;76.31
51313;BME280;37397;53.226;10.400;2023-02-19T05:18:49;101171.78;;;6.84;76.41
51313;BME280;37397;53.226;10.400;2023-02-19T05:21:17;101175.41;;;6.85;76.40
51313;BME280;37397;53.226;10.400;2023-02-19T05:23:44;101187.22;;;6.83;76.30
51313;BME280;37397;53.226;10.400;2023-02-19T05:26:16;101182.75;;;6.82;76.20
51313;BME280;37397;53.226;10.400;2023-02-19T05:28:51;101177.09;;;6.82;76.37
51313;BME280;37397;53.226;10.400;2023-02-19T05:31:19;101179.94;;;6.82;76.33
51313;BME280;37397;53.226;10.400;2023-02-19T05:33:46;101178.34;;;6.81;76.33
51313;BME280;37397;53.226;10.400;2023-02-19T05:36:17;101152.16;;;6.61;76.21
51313;BME280;37397;53.226;10.400;2023-02-19T05:38:44;101179.59;;;6.80;76.38
51313;BME280;37397;53.226;10.400;2023-02-19T05:41:16;101188.53;;;6.79;76.35
51313;BME280;37397;53.226;10.400;2023-02-19T05:43:44;101186.50;;;6.79;76.14
51313;BME280;37397;53.226;10.400;2023-02-19T05:46:13;101190.59;;;6.78;76.39
51313;BME280;37397;53.226;10.400;2023-02-19T05:48:41;101195.09;;;6.75;76.46
51313;BME280;37397;53.226;10.400;2023-02-19T05:51:10;101194.03;;;6.69;76.40
51313;BME280;37397;53.226;10.400;2023-02-19T05:53:38;101198.03;;;6.72;76.24
51313;BME280;37397;53.226;10.400;2023-02-19T05:56:31;101206.53;;;6.72;76.28
51313;BME280;37397;53.226;10.400;2023-02-19T05:59:00;101205.84;;;6.68;76.30
51313;BME280;37397;53.226;10.400;2023-02-19T06:01:29;101211.88;;;6.70;76.14
51313;BME280;37397;53.226;10.400;2023-02-19T06:03:56;101220.00;;;6.68;76.43
51313;BME280;37397;53.226;10.400;2023-02-19T06:06:24;101222.84;;;6.68;76.07
51313;BME280;37397;53.226;10.400;2023-02-19T06:08:51;101228.16;;;6.66;76.23
51313;BME280;37397;53.226;10.400;2023-02-19T06:11:18;101222.16;;;6.64;75.94
51313;BME280;37397;53.226;10.400;2023-02-19T06:13:45;101231.56;;;6.61;75.98
51313;BME280;37397;53.226;10.400;2023-02-19T06:16:12;101230.03;;;6.56;75.99
51313;BME280;37397;53.226;10.400;2023-02-19T06:18:39;101242.88;;;6.61;76.08
51313;BME280;37397;53.226;10.400;2023-02-19T06:21:08;101248.66;;;6.57;75.93
51313;BME280;37397;53.226;10.400;2023-02-19T06:23:36;101257.59;;;6.55;76.09
51313;BME280;37397;53.226;10.400;2023-02-19T06:28:32;101269.84;;;6.52;76.16
51313;BME280;37397;53.226;10.400;2023-02-19T06:30:59;101271.59;;;6.46;75.92
51313;BME280;37397;53.226;10.400;2023-02-19T06:33:26;101286.94;;;6.49;76.08
51313;BME280;37397;53.226;10.400;2023-02-19T06:35:53;101278.94;;;6.44;76.20
51313;BME280;37397;53.226;10.400;2023-02-19T06:38:20;101282.16;;;6.46;76.02
51313;BME280;37397;53.226;10.400;2023-02-19T06:40:46;101286.31;;;6.41;75.98
51313;BME280;37397;53.226;10.400;2023-02-19T06:43:13;101290.00;;;6.38;76.14
51313;BME280;37397;53.226;10.400;2023-02-19T06:45:39;101304.88;;;6.42;76.08
51313;BME280;37397;53.226;10.400;2023-02-19T06:48:06;101308.25;;;6.37;75.97
51313;BME280;37397;53.226;10.400;2023-02-19T06:50:33;101325.63;;;6.39;75.83
51313;BME280;37397;53.226;10.400;2023-02-19T06:52:59;101336.59;;;6.37;76.23
51313;BME280;37397;53.226;10.400;2023-02-19T06:55:26;101327.00;;;6.31;76.17
51313;BME280;37397;53.226;10.400;2023-02-19T06:57:52;101335.94;;;6.29;75.87
51313;BME280;37397;53.226;10.400;2023-02-19T07:00:19;101344.84;;;6.31;76.02
51313;BME280;37397;53.226;10.400;2023-02-19T07:02:45;101352.97;;;6.29;76.38
51313;BME280;37397;53.226;10.400;2023-02-19T07:05:11;101347.38;;;6.26;76.12
51313;BME280;37397;53.226;10.400;2023-02-19T07:07:38;101349.06;;;6.23;76.29
51313;BME280;37397;53.226;10.400;2023-02-19T07:10:05;101354.00;;;6.19;76.17
51313;BME280;37397;53.226;10.400;2023-02-19T07:12:31;101365.69;;;6.21;76.12
51313;BME280;37397;53.226;10.400;2023-02-19T07:14:58;101381.03;;;6.24;76.26
51313;BME280;37397;53.226;10.400;2023-02-19T07:17:24;101368.59;;;6.17;76.38
51313;BME280;37397;53.226;10.400;2023-02-19T07:19:51;101381.47;;;6.22;76.21
51313;BME280;37397;53.226;10.400;2023-02-19T07:22:17;101390.41;;;6.20;76.42
51313;BME280;37397;53.226;10.400;2023-02-19T07:24:44;101376.31;;;6.17;76.59
51313;BME280;37397;53.226;10.400;2023-02-19T07:27:13;101387.22;;;6.18;76.13
51313;BME280;37397;53.226;10.400;2023-02-19T07:29:39;101388.44;;;6.17;76.62
51313;BME280;37397;53.226;10.400;2023-02-19T07:32:06;101401.00;;;6.16;76.41
51313;BME280;37397;53.226;10.400;2023-02-19T07:34:32;101402.78;;;6.10;76.50
51313;BME280;37397;53.226;10.400;2023-02-19T07:36:59;101403.13;;;6.12;76.35
51313;BME280;37397;53.226;10.400;2023-02-19T07:39:26;101407.19;;;6.11;76.35
51313;BME280;37397;53.226;10.400;2023-02-19T07:41:52;101406.47;;;6.07;76.30
51313;BME280;37397;53.226;10.400;2023-02-19T07:44:25;101425.44;;;6.10;76.64
51313;BME280;37397;53.226;10.400;2023-02-19T07:46:51;101420.66;;;6.07;76.48
51313;BME280;37397;53.226;10.400;2023-02-19T07:49:18;101434.72;;;6.11;76.62
51313;BME280;37397;53.226;10.400;2023-02-19T07:51:44;101439.75;;;6.03;76.42
51313;BME280;37397;53.226;10.400;2023-02-19T07:54:11;101461.91;;;6.08;76.78
51313;BME280;37397;53.226;10.400;2023-02-19T07:56:37;101445.84;;;6.01;76.57
51313;BME280;37397;53.226;10.400;2023-02-19T07:59:04;101451.44;;;6.05;76.70
51313;BME280;37397;53.226;10.400;2023-02-19T08:01:30;101452.28;;;6.02;76.77
51313;BME280;37397;53.226;10.400;2023-02-19T08:04:16;101451.94;;;6.00;76.77
51313;BME280;37397;53.226;10.400;2023-02-19T08:06:42;101470.03;;;6.06;76.77
51313;BME280;37397;53.226;10.400;2023-02-19T08:09:09;101482.97;;;6.07;76.95
51313;BME280;37397;53.226;10.400;2023-02-19T08:11:36;101485.44;;;6.05;76.81
51313;BME280;37397;53.226;10.400;2023-02-19T08:14:25;101486.69;;;6.04;76.87
51313;BME280;37397;53.226;10.400;2023-02-19T08:16:52;101491.97;;;6.02;76.93
51313;BME280;37397;53.226;10.400;2023-02-19T08:19:19;101491.25;;;5.98;76.80
51313;BME280;37397;53.226;10.400;2023-02-19T08:21:46;101494.34;;;6.03;76.86
51313;BME280;37397;53.226;10.400;2023-02-19T08:24:12;101486.78;;;5.97;76.79
51313;BME280;37397;53.226;10.400;2023-02-19T08:26:39;101504.41;;;6.08;77.01
51313;BME280;37397;53.226;10.400;2023-02-19T08:29:05;101494.31;;;6.07;77.00
51313;BME280;37397;53.226;10.400;2023-02-19T08:31:33;101506.88;;;6.06;77.05
51313;BME280;37397;53.226;10.400;2023-02-19T08:34:00;101500.84;;;6.04;77.22
51313;BME280;37397;53.226;10.400;2023-02-19T08:36:26;101491.97;;;6.02;77.14
51313;BME280;37397;53.226;10.400;2023-02-19T08:38:53;101509.56;;;6.13;77.16
51313;BME280;37397;53.226;10.400;2023-02-19T08:41:19;101514.06;;;6.11;77.14
51313;BME280;37397;53.226;10.400;2023-02-19T08:43:46;101525.34;;;6.14;77.45
51313;BME280;37397;53.226;10.400;2023-02-19T08:46:12;101515.22;;;6.13;77.39
51313;BME280;37397;53.226;10.400;2023-02-19T08:48:39;101520.03;;;6.16;77.25
51313;BME280;37397;53.226;10.400;2023-02-19T08:51:08;101507.22;;;6.08;77.41
51313;BME280;37397;53.226;10.400;2023-02-19T08:53:37;101521.63;;;6.17;77.14
51313;BME280;37397;53.226;10.400;2023-02-19T08:56:09;101524.97;;;6.12;77.42
51313;BME280;37397;53.226;10.400;2023-02-19T08:58:37;101525.78;;;6.13;77.39
51313;BME280;37397;53.226;10.400;2023-02-19T09:01:10;101537.41;;;6.18;77.09
51313;BME280;37397;53.226;10.400;2023-02-19T09:03:38;101529.47;;;6.10;77.42
51313;BME280;37397;53.226;10.400;2023-02-19T09:06:05;101534.28;;;6.13;77.43
51313;BME280;37397;53.226;10.400;2023-02-19T09:08:31;101550.34;;;6.19;77.35
51313;BME280;37397;53.226;10.400;2023-02-19T09:11:02;101553.16;;;6.19;77.52
51313;BME280;37397;53.226;10.400;2023-02-19T09:13:29;101558.84;;;6.19;77.47
51313;BME280;37397;53.226;10.400;2023-02-19T09:15:56;101552.38;;;6.19;77.44
51313;BME280;37397;53.226;10.400;2023-02-19T09:18:24;101567.72;;;6.22;77.61
51313;BME280;37397;53.226;10.400;2023-02-19T09:20:51;101564.16;;;6.17;77.58
51313;BME280;37397;53.226;10.400;2023-02-19T09:23:17;101552.88;;;6.14;77.35
51313;BME280;37397;53.226;10.400;2023-02-19T09:25:44;101579.94;;;6.18;77.61
51313;BME280;37397;53.226;10.400;2023-02-19T09:28:10;101587.50;;;6.25;77.64
51313;BME280;37397;53.226;10.400;2023-02-19T09:30:37;101588.78;;;6.20;77.40
51313;BME280;37397;53.226;10.400;2023-02-19T09:33:04;101583.91;;;6.21;77.36
51313;BME280;37397;53.226;10.400;2023-02-19T09:35:31;101592.84;;;6.19;77.19
51313;BME280;37397;53.226;10.400;2023-02-19T09:37:59;101605.66;;;6.28;77.55
51313;BME280;37397;53.226;10.400;2023-02-19T09:40:28;101604.78;;;6.31;77.75
51313;BME280;37397;53.226;10.400;2023-02-19T09:42:55;101595.16;;;6.28;77.53
51313;BME280;37397;53.226;10.400;2023-02-19T09:45:24;101598.41;;;6.27;77.60
51313;BME280;37397;53.226;10.400;2023-02-19T09:47:56;101612.50;;;6.30;77.10
51313;BME280;37397;53.226;10.400;2023-02-19T09:50:39;101595.06;;;6.32;77.16
51313;BME280;37397;53.226;10.400;2023-02-19T09:53:22;101611.28;;;6.31;77.46
51313;BME280;37397;53.226;10.400;2023-02-19T09:55:51;101616.53;;;6.33;77.41
51313;BME280;37397;53.226;10.400;2023-02-19T09:58:54;101623.78;;;6.34;77.39
51313;BME280;37397;53.226;10.400;2023-02-19T10:01:11;101633.91;;;6.35;77.45
51313;BME280;37397;53.226;10.400;2023-02-19T10:03:41;101624.28;;;6.29;77.40
51313;BME280;37397;53.226;10.400;2023-02-19T10:06:16;101638.69;;;6.38;77.36
51313;BME280;37397;53.226;10.400;2023-02-19T10:08:47;101630.56;;;6.40;77.20
51313;BME280;37397;53.226;10.400;2023-02-19T10:11:14;101614.91;;;6.32;77.30
51313;BME280;37397;53.226;10.400;2023-02-19T10:13:56;101644.31;;;6.42;77.05
51313;BME280;37397;53.226;10.400;2023-02-19T10:16:27;101640.28;;;6.39;77.40
51313;BME280;37397;53.226;10.400;2023-02-19T10:18:54;101642.75;;;6.37;77.07
51313;BME280;37397;53.226;10.400;2023-02-19T10:21:26;101638.09;;;6.27;77.09
51313;BME280;37397;53.226;10.400;2023-02-19T10:23:57;101656.44;;;6.42;77.26
51313;BME280;37397;53.226;10.400;2023-02-19T10:26:25;101664.50;;;6.44;77.04
51313;BME280;37397;53.226;10.400;2023-02-19T10:28:52;101674.91;;;6.50;77.00
51313;BME280;37397;53.226;10.400;2023-02-19T10:31:23;101685.41;;;6.53;76.79
51313;BME280;37397;53.226;10.400;2023-02-19T10:33:55;101682.63;;;6.50;76.91
51313;BME280;37397;53.226;10.400;2023-02-19T10:36:25;101700.75;;;6.56;76.90
51313;BME280;37397;53.226;10.400;2023-02-19T10:38:58;101683.88;;;6.49;76.82
51313;BME280;37397;53.226;10.400;2023-02-19T10:41:26;101704.78;;;6.59;76.44
51313;BME280;37397;53.226;10.400;2023-02-19T10:46:26;101700.84;;;6.52;76.56
51313;BME280;37397;53.226;10.400;2023-02-19T10:49:04;101689.09;;;6.50;75.83
51313;BME280;37397;53.226;10.400;2023-02-19T10:51:34;101695.88;;;6.56;75.99
51313;BME280;37397;53.226;10.400;2023-02-19T10:56:30;101705.56;;;6.59;75.23
51313;BME280;37397;53.226;10.400;2023-02-19T10:59:18;101714.81;;;6.63;74.64
51313;BME280;37397;53.226;10.400;2023-02-19T11:02:16;101701.56;;;6.56;74.38
51313;BME280;37397;53.226;10.400;2023-02-19T11:05:04;101716.06;;;6.62;74.29
51313;BME280;37397;53.226;10.400;2023-02-19T11:07:31;101712.78;;;6.64;74.49
51313;BME280;37397;53.226;10.400;2023-02-19T11:09:58;101709.56;;;6.62;74.25
51313;BME280;37397;53.226;10.400;2023-02-19T11:12:30;101720.03;;;6.65;74.03
51313;BME280;37397;53.226;10.400;2023-02-19T11:15:01;101723.69;;;6.65;73.97
51313;BME280;37397;53.226;10.400;2023-02-19T11:17:37;101735.53;;;6.60;73.39
51313;BME280;37397;53.226;10.400;2023-02-19T11:20:12;101733.88;;;6.63;73.09
51313;BME280;37397;53.226;10.400;2023-02-19T11:22:42;101735.53;;;6.60;73.15
51313;BME280;37397;53.226;10.400;2023-02-19T11:36:33;101738.69;;;6.66;72.57
51313;BME280;37397;53.226;10.400;2023-02-19T11:38:34;101737.06;;;6.65;72.68
51313;BME280;37397;53.226;10.400;2023-02-19T11:41:28;101731.38;;;6.65;72.32
51313;BME280;37397;53.226;10.400;2023-02-19T11:47:13;101718.47;;;6.64;72.57
51313;BME280;37397;53.226;10.400;2023-02-19T11:53:27;101737.47;;;6.67;72.23
51313;BME280;37397;53.226;10.400;2023-02-19T11:59:01;101750.03;;;6.66;71.21
51313;BME280;37397;53.226;10.400;2023-02-19T12:04:29;101742.69;;;6.68;70.46
51313;BME280;37397;53.226;10.400;2023-02-19T12:10:19;101752.50;;;6.64;69.30
51313;BME280;37397;53.226;10.400;2023-02-19T12:13:06;101752.50;;;6.64;69.27
51313;BME280;37397;53.226;10.400;2023-02-19T12:16:04;101750.09;;;6.62;69.08
51313;BME280;37397;53.226;10.400;2023-02-19T12:22:09;101747.63;;;6.64;68.73
51313;BME280;37397;53.226;10.400;2023-02-19T12:28:04;101754.09;;;6.65;69.27
51313;BME280;37397;53.226;10.400;2023-02-19T12:41:47;101765.31;;;6.72;68.76
51313;BME280;37397;53.226;10.400;2023-02-19T12:47:01;101783.06;;;6.76;68.94
51313;BME280;37397;53.226;10.400;2023-02-19T12:49:38;101780.66;;;6.74;69.02
51313;BME280;37397;53.226;10.400;2023-02-19T12:52:12;101773.75;;;6.75;68.91
51313;BME280;37397;53.226;10.400;2023-02-19T12:54:45;101781.84;;;6.77;69.03
51313;BME280;37397;53.226;10.400;2023-02-19T12:57:17;101787.88;;;6.79;68.78
51313;BME280;37397;53.226;10.400;2023-02-19T13:00:03;101792.69;;;6.82;68.25
51313;BME280;37397;53.226;10.400;2023-02-19T13:02:41;101784.56;;;6.84;67.83
51313;BME280;37397;53.226;10.400;2023-02-19T13:05:39;101793.09;;;6.84;67.33
51313;BME280;37397;53.226;10.400;2023-02-19T13:08:55;101790.25;;;6.84;67.58
51313;BME280;37397;53.226;10.400;2023-02-19T13:11:55;101792.63;;;6.86;68.03
51313;BME280;37397;53.226;10.400;2023-02-19T13:19:49;101784.44;;;6.91;67.71
51313;BME280;37397;53.226;10.400;2023-02-19T13:22:33;101780.38;;;6.92;67.33
51313;BME280;37397;53.226;10.400;2023-02-19T13:25:22;101767.34;;;6.95;67.56
51313;BME280;37397;53.226;10.400;2023-02-19T13:28:04;101761.66;;;6.95;67.15
51313;BME280;37397;53.226;10.400;2023-02-19T13:31:06;101763.72;;;6.94;67.18
51313;BME280;37397;53.226;10.400;2023-02-19T13:33:38;101759.22;;;6.97;67.19
51313;BME280;37397;53.226;10.400;2023-02-19T13:36:10;101770.09;;;6.99;67.12
51313;BME280;37397;53.226;10.400;2023-02-19T13:38:40;101766.91;;;6.97;66.58
51313;BME280;37397;53.226;10.400;2023-02-19T13:41:17;101755.47;;;7.00;66.37
51313;BME280;37397;53.226;10.400;2023-02-19T13:43:45;101763.56;;;7.02;66.62
51313;BME280;37397;53.226;10.400;2023-02-19T13:46:19;101757.88;;;7.02;66.38
51313;BME280;37397;53.226;10.400;2023-02-19T13:48:45;101761.56;;;7.02;66.42
51313;BME280;37397;53.226;10.400;2023-02-19T13:58:56;101751.00;;;7.03;66.81
51313;BME280;37397;53.226;10.400;2023-02-19T14:14:45;101789.72;;;7.13;66.77
51313;BME280;37397;53.226;10.400;2023-02-19T14:17:36;101782.03;;;7.14;66.27
51313;BME280;37397;53.226;10.400;2023-02-19T14:25:33;101788.50;;;7.14;66.05
51313;BME280;37397;53.226;10.400;2023-02-19T14:30:57;101779.97;;;7.14;66.55
51313;BME280;37397;53.226;10.400;2023-02-19T14:33:32;101779.09;;;7.17;66.38
51313;BME280;37397;53.226;10.400;2023-02-19T14:36:08;101795.72;;;7.19;66.32
51313;BME280;37397;53.226;10.400;2023-02-19T14:39:08;101793.31;;;7.17;66.24
51313;BME280;37397;53.226;10.400;2023-02-19T14:41:39;101789.59;;;7.20;66.60
51313;BME280;37397;53.226;10.400;2023-02-19T14:44:34;101798.91;;;7.21;66.47
51313;BME280;37397;53.226;10.400;2023-02-19T14:47:04;101784.78;;;7.17;66.56
51313;BME280;37397;53.226;10.400;2023-02-19T14:49:46;101798.13;;;7.20;66.15
51313;BME280;37397;53.226;10.400;2023-02-19T14:57:40;101772.22;;;7.18;66.22
51313;BME280;37397;53.226;10.400;2023-02-19T15:02:52;101765.28;;;7.19;66.28
51313;BME280;37397;53.226;10.400;2023-02-19T15:05:24;101762.34;;;7.23;66.51
51313;BME280;37397;53.226;10.400;2023-02-19T15:07:53;101765.19;;;7.23;66.37
51313;BME280;37397;53.226;10.400;2023-02-19T15:10:21;101759.59;;;7.19;66.65